< < Back
Terminal Aerodrome Forecast


Current Version              Previous Versions:   1  2  3  4  5  6  7  8  9  

Terminal Aerodrome Forecast

415
FTUS42 KJAX 281720
TAFGNV
TAF
KGNV 281720Z 2818/2918 35008KT P6SM SCT040
     FM290100 32002KT P6SM SCT250=

Latest METAR

365
SAUS70 KWBC 291900 RRA
MTRGNV
METAR KGNV 291853Z VRB04KT 10SM CLR 32/18 A3003 RMK AO2 SLP165
T03220183


USA.gov is the U.S. government's official web portal to all federal, state and local government web resources and services.